Poomacha (214, 682) Station Data

Red Flag Warning: No
Fire Weather Zone: 258
SDGE Region: North East
Lat/Lon: 33.276/-116.873

Observations

Time Wind Speed/Gust Temp(F) RH Fuel Moist Fuel Temp(F) Dewpt(F) Tmax(F) Tmin(F) Accum Precip 10-min Precip SL Press(mb)
5/24 8:20am 98 9 G 12 65° 55% - - 48° 67.6° 57.2° - - -
5/24 8:10am 120 8 G 14 64° 55% - - 48° 67.6° 57.2° - - -
5/24 8:00am 67 3 G 6 63° 57% - - 48° 67.6° 57.2° - - -
5/24 7:50am 272 2 G 4 63° 52% - - 45° 67.6° 57.2° - - -
5/24 7:40am 297 3 G 4 62° 53% - - 44° 67.6° 57.2° - - -
5/24 7:30am 75 3 G 5 61° 55% - - 45° 67.6° 57.2° - - -
5/24 7:20am 128 2 G 4 63° 50% - - 44° 67.6° 57.2° - - -
5/24 7:10am 92 1 G 2 63° 51% - - 44° 67.6° 57.2° - - -
5/24 7:00am 244 1 G 3 62° 48% - - 43° 67.6° 57.2° - - -
5/24 6:50am 300 2 G 4 62° 45% - - 41° 67.6° 57.2° - - -
5/24 6:40am 36 2 G 4 60° 54% - - 43° 67.6° 57.2° - - -
5/24 6:30am 143 3 G 6 61° 53% - - 43° 67.6° 57.2° - - -
5/24 6:20am 136 2 G 5 62° 47% - - 42° 67.6° 57.2° - - -
5/24 6:10am 135 3 G 6 62° 46% - - 41° 67.6° 57.2° - - -
5/24 6:00am 249 2 G 5 61° 46% - - 40° 67.6° 57.2° - - -
5/24 5:50am 144 3 G 7 62° 47% - - 41° 67.6° 57.2° - - -
5/24 5:40am 90 4 G 12 61° 47% - - 41° 67.6° 57.2° - - -
5/24 5:30am 135 4 G 7 60° 51% - - 42° 67.6° 57.2° - - -
5/24 5:20am 336 2 G 5 62° 46% - - 40° 67.6° 57.2° - - -
5/24 5:10am 200 1 G 4 59° 54% - - 42° 67.6° 57.2° - - -
5/24 5:00am 133 4 G 7 59° 54% - - 43° 67.6° 57.2° - - -
5/24 4:50am 106 3 G 6 59° 55% - - 42° 67.6° 57.2° - - -
5/24 4:40am 247 2 G 4 61° 46% - - 40° 67.6° 59.3° - - -
5/24 4:30am 271 2 G 5 60° 48% - - 40° 67.6° 59.3° - - -
5/24 4:20am 194 1 G 3 62° 45% - - 40° 67.6° 60.3° - - -
5/24 4:10am 15 1 G 3 62° 44% - - 39° 67.6° 60.7° - - -
5/24 4:00am 228 1 G 3 62° 45% - - 40° 67.6° 61° - - -
5/24 3:50am 38 1 G 3 62° 44% - - 40° 67.6° 61° - - -
5/24 3:40am 239 2 G 3 62° 44% - - 40° 67.6° 61° - - -
5/24 3:30am 224 1 G 2 63° 44% - - 40° 67.6° 61° - - -
5/24 3:20am 197 0 G 2 63° 44% - - 41° 67.6° 61° - - -
5/24 3:10am 21 1 G 2 63° 46% - - 41° 67.6° 61° - - -
5/24 3:00am 123 1 G 5 62° 49% - - 42° 67.6° 61° - - -
5/24 2:50am 107 3 G 7 63° 48% - - 43° 67.6° 61° - - -
5/24 2:40am 124 1 G 3 63° 50% - - 44° 67.6° 61° - - -
5/24 2:30am 122 1 G 3 63° 50% - - 44° 67.6° 61° - - -
5/24 2:20am 87 2 G 4 62° 53% - - 44° 67.6° 61° - - -
5/24 2:10am 215 2 G 3 63° 50% - - 44° 67.6° 61.1° - - -
5/24 2:00am 284 3 G 5 64° 47% - - 43° 67.6° 61.1° - - -
5/24 1:50am 293 2 G 5 65° 46% - - 44° 67.6° 61.1° - - -
5/24 1:40am 112 4 G 9 64° 50% - - 45° 67.6° 61.1° - - -
5/24 1:30am 116 4 G 7 65° 49% - - 45° 67.6° 61.1° - - -
5/24 1:20am 359 1 G 4 65° 48% - - 45° 67.6° 61.1° - - -
5/24 1:10am 111 3 G 5 65° 49% - - 45° 67.6° 61.1° - - -
5/24 1:00am 71 3 G 4 63° 53% - - 45° 67.6° 61.1° - - -
5/24 12:50am 80 2 G 4 64° 51% - - 45° 67.6° 61.1° - - -
5/24 12:40am 311 2 G 4 65° 48% - - 45° 67.6° 62.6° - - -
5/24 12:30am 284 1 G 3 65° 48% - - 45° 67.6° 62.6° - - -
5/24 12:20am 160 1 G 4 65° 49% - - 45° 67.6° 62.6° - - -
5/24 12:10am 336 2 G 3 67° 45% - - 45° 67.6° 66.1° - - -
5/24 12:00am 285 2 G 3 66° 46% - - 45° 90° 60.9° - - -
5/23 11:50pm 171 1 G 2 67° 46% - - 45° 90° 60.9° - - -
5/23 11:40pm 108 1 G 3 66° 47% - - 45° 90° 60.9° - - -
5/23 11:30pm 80 0 G 1 66° 49% - - 46° 90° 60.9° - - -
5/23 11:20pm 69 0 G 2 66° 49% - - 46° 90° 60.9° - - -
5/23 11:10pm 78 1 G 2 67° 48% - - 47° 90° 60.9° - - -
5/23 11:00pm 17 1 G 3 67° 46% - - 46° 90° 60.9° - - -
5/23 10:50pm 303 2 G 3 67° 46% - - 46° 90° 60.9° - - -
5/23 10:40pm 272 1 G 3 67° 48% - - 47° 90° 60.9° - - -
5/23 10:30pm 158 1 G 3 67° 50% - - 48° 90° 60.9° - - -
5/23 10:20pm 285 1 G 2 68° 52% - - 49° 90° 60.9° - - -
5/23 10:10pm 72 1 G 2 68° 52% - - 50° 90° 60.9° - - -
5/23 10:00pm 101 1 G 3 68° 54% - - 51° 90° 60.9° - - -
5/23 9:50pm 84 1 G 2 69° 50% - - 49° 90° 60.9° - - -
5/23 9:40pm 316 1 G 3 69° 47% - - 48° 90° 60.9° - - -
5/23 9:30pm 286 1 G 1 68° 53% - - 50° 90° 60.9° - - -
5/23 9:20pm 110 1 G 2 69° 53% - - 51° 90° 60.9° - - -
5/23 9:10pm 302 2 G 3 70° 49% - - 50° 90° 60.9° - - -
5/23 9:00pm 302 2 G 4 70° 53% - - 52° 90° 60.9° - - -
5/23 8:50pm 78 1 G 4 70° 55% - - 53° 90° 60.9° - - -
5/23 8:40pm 89 3 G 4 69° 60% - - 54° 90° 60.9° - - -
5/23 8:30pm 73 3 G 4 69° 59% - - 54° 90° 60.9° - - -
5/23 8:20pm 13 2 G 3 71° 56% - - 55° 90° 60.9° - - -
5/23 8:10pm 308 3 G 4 71° 57% - - 55° 90° 60.9° - - -
5/23 8:00pm 275 4 G 5 71° 56% - - 55° 90° 60.9° - - -
5/23 7:50pm 274 5 G 6 71° 56% - - 55° 90° 60.9° - - -
5/23 7:40pm 284 4 G 6 72° 54% - - 55° 90° 60.9° - - -
5/23 7:30pm 258 3 G 6 74° 51% - - 55° 90° 60.9° - - -
5/23 7:20pm 262 3 G 6 76° 48% - - 54° 90° 60.9° - - -
5/23 7:10pm 263 3 G 6 78° 45% - - 55° 90° 60.9° - - -
5/23 7:00pm 247 3 G 5 80° 39% - - 53° 90° 60.9° - - -
5/23 6:50pm 252 2 G 6 81° 37% - - 52° 90° 60.9° - - -
5/23 6:40pm 251 4 G 9 81° 34% - - 50° 90° 60.9° - - -
5/23 6:30pm 247 5 G 10 82° 31% - - 48° 90° 60.9° - - -
5/23 6:20pm 244 4 G 8 82° 29% - - 46° 90° 60.9° - - -
5/23 6:10pm 246 4 G 7 83° 28% - - 46° 90° 60.9° - - -
5/23 6:00pm 243 5 G 7 83° 28% - - 46° 90° 60.9° - - -
5/23 5:50pm 242 4 G 7 83° 27% - - 46° 90° 60.9° - - -
5/23 5:40pm 248 4 G 7 83° 27% - - 45° 90° 60.9° - - -
5/23 5:30pm 238 5 G 9 83° 27% - - 46° 90° 60.9° - - -
5/23 5:20pm 252 4 G 9 83° 29% - - 47° 90° 60.9° - - -
5/23 5:10pm 257 5 G 9 83° 29% - - 47° 90° 60.9° - - -
5/23 5:00pm 246 3 G 8 83° 30% - - 48° 90° 60.9° - - -
5/23 4:50pm 242 4 G 9 83° 30% - - 48° 90° 60.9° - - -
5/23 4:40pm 252 5 G 10 83° 30% - - 48° 90° 60.9° - - -
5/23 4:30pm 238 4 G 11 82° 32% - - 49° 90° 60.9° - - -
5/23 4:20pm 246 5 G 11 82° 34% - - 51° 90° 60.9° - - -
5/23 4:10pm 247 4 G 12 82° 37% - - 53° 90° 60.9° - - -
5/23 4:00pm 250 6 G 12 82° 40% - - 55° 90° 60.9° - - -
5/23 3:50pm 250 4 G 10 82° 42% - - 56° 90° 60.9° - - -
5/23 3:40pm 257 5 G 12 82° 45% - - 58° 90° 60.9° - - -
5/23 3:30pm 248 6 G 10 81° 47% - - 59° 90° 60.9° - - -
5/23 3:20pm 258 6 G 13 81° 48% - - 59° 90° 60.9° - - -
5/23 3:10pm 259 5 G 14 81° 48% - - 59° 90° 60.9° - - -
5/23 3:00pm 251 6 G 14 81° 48% - - 59° 90° 60.9° - - -
5/23 2:50pm 256 7 G 12 81° 47% - - 59° 90° 60.9° - - -
5/23 2:40pm 254 8 G 15 82° 47% - - 59° 90° 60.9° - - -
5/23 2:30pm 245 7 G 14 82° 46% - - 59° 90° 60.9° - - -
5/23 2:20pm 249 6 G 12 83° 45% - - 59° 90° 60.9° - - -
5/23 2:10pm 242 7 G 13 83° 45% - - 59° 90° 60.9° - - -
5/23 2:00pm 249 5 G 9 83° 45% - - 59° 90° 60.9° - - -
5/23 1:50pm 247 5 G 9 83° 45% - - 59° 90° 60.9° - - -
5/23 1:40pm 250 7 G 12 82° 45% - - 59° 90° 60.9° - - -
5/23 1:30pm 247 7 G 14 83° 44% - - 58° 90° 60.9° - - -
5/23 1:20pm 247 6 G 11 84° 41% - - 58° 90° 60.9° - - -
5/23 1:10pm 245 6 G 11 85° 39% - - 57° 90° 60.9° - - -
5/23 1:00pm 250 6 G 12 85° 39% - - 57° 90° 60.9° - - -
5/23 12:50pm 252 7 G 15 85° 38% - - 57° 90° 60.9° - - -
5/23 12:40pm 245 6 G 14 88° 30% - - 52° 90° 60.9° - - -
5/23 12:30pm 269 6 G 11 87° 29% - - 51° 90° 60.9° - - -
5/23 12:20pm 276 6 G 13 89° 29% - - 52° 90° 60.9° - - -
5/23 12:10pm 254 4 G 9 88° 30% - - 53° 89.6° 60.9° - - -
5/23 12:00pm 245 6 G 11 87° 29% - - 51° 89.6° 60.9° - - -
5/23 11:50am 246 4 G 11 88° 28% - - 51° 89.6° 60.9° - - -
5/23 11:40am 261 5 G 10 87° 29% - - 51° 89.2° 60.9° - - -
5/23 11:30am 254 4 G 8 87° 28% - - 50° 89.2° 60.9° - - -
5/23 11:20am 265 4 G 8 88° 27% - - 50° 89.2° 60.9° - - -
5/23 11:10am 251 3 G 6 88° 25% - - 47° 89.2° 60.9° - - -
5/23 11:00am 269 2 G 4 87° 25% - - 47° 88° 60.9° - - -
5/23 10:50am 245 2 G 4 85° 26% - - 46° 86.4° 60.9° - - -
5/23 10:40am 264 3 G 6 84° 27% - - 46° 84.8° 60.9° - - -
5/23 10:30am 257 5 G 7 83° 29% - - 48° 84.8° 60.9° - - -
5/23 10:20am 245 5 G 8 83° 29% - - 47° 84.8° 60.9° - - -
5/23 10:10am 272 3 G 6 83° 30% - - 48° 84.8° 60.9° - - -
5/23 10:00am 242 3 G 6 83° 31% - - 49° 84.8° 60.9° - - -
5/23 9:50am 123 4 G 8 83° 30% - - 49° 84.5° 60.9° - - -
5/23 9:40am 101 5 G 8 81° 33% - - 49° 82.1° 60.9° - - -
5/23 9:30am 104 8 G 11 80° 33% - - 48° 81.2° 60.9° - - -
5/23 9:20am 88 10 G 13 79° 34% - - 48° 79.7° 60.9° - - -
5/23 9:10am 97 10 G 14 78° 34% - - 47° 78.8° 60.9° - - -
5/23 9:00am 90 10 G 14 76° 35% - - 47° 77.4° 60.9° - - -
5/23 8:50am 89 10 G 13 75° 38% - - 47° 75.7° 60.9° - - -
5/23 8:40am 87 11 G 15 74° 38% - - 47° 74.7° 60.9° - - -
5/23 8:30am 87 8 G 12 73° 40% - - 47° 74.2° 60.9° - - -
5/23 8:20am 93 7 G 11 72° 41% - - 47° 73° 60.9° - - -
5/23 8:10am 102 8 G 12 70° 43% - - 46° 72.2° 60.9° - - -
5/23 8:00am 102 10 G 17 71° 40% - - 46° 72.2° 60.9° - - -
5/23 7:50am 112 6 G 12 71° 38% - - 45° 72.2° 60.9° - - -
5/23 7:40am 104 8 G 14 71° 37% - - 44° 71.9° 60.9° - - -
5/23 7:30am 93 6 G 11 71° 36% - - 43° 71.8° 60.9° - - -
5/23 7:20am 99 9 G 17 70° 36% - - 42° 70.8° 60.9° - - -
5/23 7:10am 95 7 G 12 69° 37% - - 42° 70.4° 60.9° - - -
5/23 7:00am 114 5 G 9 67° 41% - - 43° 68.8° 60.9° - - -
5/23 6:50am 95 7 G 13 67° 40% - - 42° 68.8° 60.9° - - -
5/23 6:40am 103 6 G 10 66° 43% - - 43° 68.7° 60.9° - - -
5/23 6:30am 89 3 G 10 66° 42% - - 42° 68.7° 60.9° - - -
5/23 6:20am 86 6 G 11 65° 44% - - 43° 68.7° 60.9° - - -
5/23 6:10am 106 6 G 12 65° 44% - - 43° 68.7° 60.9° - - -
5/23 6:00am 93 5 G 13 65° 44% - - 42° 68.7° 60.9° - - -